Time;durP1;ratioP1;P1;durP2;ratioP2;P2;SDS_P1;SDS_P2;PMS_P1;PMS_P2;Temp;Humidity;BMP_temperature;BMP_pressure;BME280_temperature;BME280_humidity;BME280_pressure;Samples;Min_cycle;Max_cycle;Signal;HPM_P1;HPM_P2
2022/06/22 00:00:35;;;;;;;3.40;1.90;;;;;;;12.25;100.00;100771.06;5025612;28;20417;-87
2022/06/22 00:03:12;;;;;;;3.53;2.13;;;;;;;12.17;100.00;100749.06;5026004;28;20942;-88
2022/06/22 00:05:47;;;;;;;4.78;2.40;;;;;;;12.08;100.00;100760.63;5017653;28;20656;-87
2022/06/22 00:08:25;;;;;;;3.53;2.10;;;;;;;12.06;100.00;100775.66;5025245;28;20424;-88
2022/06/22 00:11:04;;;;;;;5.05;2.40;;;;;;;12.00;100.00;100780.34;5027310;28;20442;-88
2022/06/22 00:13:38;;;;;;;4.63;2.30;;;;;;;11.74;100.00;100753.25;5033294;28;20440;-88
2022/06/22 00:16:17;;;;;;;4.40;2.25;;;;;;;11.85;100.00;100761.34;5041001;28;20433;-87
2022/06/22 00:18:53;;;;;;;4.63;2.35;;;;;;;11.86;100.00;100779.31;5030195;28;20426;-88
2022/06/22 00:21:31;;;;;;;2.90;2.10;;;;;;;11.78;100.00;100766.31;5031399;28;20430;-88
2022/06/22 00:24:02;;;;;;;5.18;2.20;;;;;;;11.83;100.00;100772.53;5031346;28;20781;-89
2022/06/22 00:26:36;;;;;;;4.10;2.20;;;;;;;11.76;100.00;100769.31;5032332;28;20421;-87
2022/06/22 00:29:20;;;;;;;3.80;2.15;;;;;;;11.78;100.00;100775.31;5028512;28;20425;-88
2022/06/22 00:32:13;;;;;;;4.72;2.25;;;;;;;11.80;100.00;100778.56;5030131;28;20442;-87
2022/06/22 00:34:48;;;;;;;4.78;2.40;;;;;;;11.74;100.00;100771.53;5025239;28;20438;-88
2022/06/22 00:37:26;;;;;;;3.90;2.40;;;;;;;11.80;100.00;100783.22;5030037;28;20424;-87
2022/06/22 00:39:59;;;;;;;4.45;2.42;;;;;;;11.77;100.00;100786.50;5041623;28;20433;-89
2022/06/22 00:42:31;;;;;;;5.43;2.50;;;;;;;11.81;100.00;100791.09;5026202;28;20440;-88
2022/06/22 00:45:08;;;;;;;5.68;2.50;;;;;;;11.77;100.00;100787.31;5021496;28;20414;-89
2022/06/22 00:47:41;;;;;;;4.28;2.65;;;;;;;11.81;100.00;100774.75;5023213;28;20890;-87
2022/06/22 00:50:19;;;;;;;4.18;2.40;;;;;;;11.73;100.00;100778.06;5032618;28;20431;-88
2022/06/22 00:52:51;;;;;;;5.57;2.70;;;;;;;11.73;100.00;100783.53;5028677;28;20764;-87
2022/06/22 00:55:25;;;;;;;3.90;2.23;;;;;;;11.69;100.00;100779.75;5039064;28;20497;-88
2022/06/22 00:58:00;;;;;;;4.30;2.50;;;;;;;11.65;100.00;100782.22;5033293;28;20654;-87
2022/06/22 01:00:37;;;;;;;5.47;2.50;;;;;;;11.57;100.00;100767.31;5030466;28;20441;-88
2022/06/22 01:03:20;;;;;;;5.70;2.57;;;;;;;11.64;100.00;100769.72;5030800;28;20423;-88
2022/06/22 01:05:59;;;;;;;5.10;2.40;;;;;;;11.62;100.00;100771.09;5023942;28;20507;-88
2022/06/22 01:08:39;;;;;;;5.88;2.40;;;;;;;11.63;100.00;100773.53;5032617;28;20430;-88
2022/06/22 01:14:12;;;;;;;4.65;2.30;;;;;;;11.67;100.00;100766.41;5029528;28;20423;-88
2022/06/22 01:16:50;;;;;;;5.50;2.30;;;;;;;11.66;100.00;100758.50;5031695;28;20427;-88
2022/06/22 01:19:31;;;;;;;3.80;2.23;;;;;;;11.58;100.00;100768.09;5027723;28;20421;-89
2022/06/22 01:22:23;;;;;;;5.35;2.50;;;;;;;11.54;100.00;100761.59;5028337;28;20969;-89
2022/06/22 01:25:04;;;;;;;4.18;2.30;;;;;;;11.50;100.00;100755.91;5022616;28;20442;-88
2022/06/22 01:27:42;;;;;;;4.55;2.50;;;;;;;11.50;100.00;100755.91;5022050;28;20421;-88
2022/06/22 01:30:23;;;;;;;4.35;2.53;;;;;;;11.44;100.00;100757.03;5022773;28;20438;-88
2022/06/22 01:32:56;;;;;;;4.60;2.45;;;;;;;11.42;100.00;100750.25;5027203;28;20912;-88
2022/06/22 01:35:33;;;;;;;7.13;2.75;;;;;;;11.39;100.00;100762.50;5032116;28;20909;-88
2022/06/22 01:38:12;;;;;;;4.47;2.50;;;;;;;11.39;100.00;100759.78;5020813;28;20432;-88
2022/06/22 01:40:49;;;;;;;5.95;2.50;;;;;;;11.35;100.00;100761.44;5023624;28;20427;-89
2022/06/22 01:43:29;;;;;;;4.47;2.55;;;;;;;11.29;100.00;100755.22;5032789;28;20423;-89
2022/06/22 01:46:09;;;;;;;5.27;2.60;;;;;;;11.26;100.00;100760.44;5023498;28;20428;-88
2022/06/22 01:48:48;;;;;;;6.72;2.80;;;;;;;11.20;100.00;100760.47;5027912;28;20434;-88
2022/06/22 01:51:28;;;;;;;5.32;2.70;;;;;;;11.08;100.00;100757.28;5030440;28;20443;-89
2022/06/22 01:54:06;;;;;;;4.57;2.65;;;;;;;11.02;100.00;100752.94;5024170;28;20427;-87
2022/06/22 01:56:44;;;;;;;4.60;2.30;;;;;;;11.03;100.00;100760.00;5028287;28;20926;-88
2022/06/22 01:59:23;;;;;;;4.88;2.50;;;;;;;10.92;100.00;100753.81;5028527;28;20895;-87
2022/06/22 02:02:00;;;;;;;4.40;2.40;;;;;;;10.98;100.00;100758.16;5025642;28;20422;-87
2022/06/22 02:04:40;;;;;;;4.32;2.30;;;;;;;10.95;100.00;100752.44;5041299;28;20440;-88
2022/06/22 02:10:23;;;;;;;7.25;2.70;;;;;;;10.91;100.00;100754.09;5023436;28;20979;-88
2022/06/22 02:13:05;;;;;;;5.53;2.50;;;;;;;10.82;100.00;100757.41;5027130;28;20427;-88
2022/06/22 02:15:53;;;;;;;5.25;2.85;;;;;;;10.73;100.00;100761.81;5027383;28;20433;-89
2022/06/22 02:18:26;;;;;;;5.13;2.75;;;;;;;10.68;100.00;100767.25;5024373;28;20900;-88
2022/06/22 02:20:55;;;;;;;6.43;2.80;;;;;;;10.60;100.00;100768.66;5031990;28;20419;-89
2022/06/22 02:23:29;;;;;;;5.47;2.60;;;;;;;10.53;100.00;100766.22;5027588;28;20435;-89
2022/06/22 02:26:13;;;;;;;5.03;2.70;;;;;;;10.53;100.00;100768.94;5027548;28;20811;-88
2022/06/22 02:28:43;;;;;;;4.95;2.72;;;;;;;10.52;100.00;100771.94;5029766;28;20456;-88
2022/06/22 02:31:20;;;;;;;6.13;2.90;;;;;;;10.50;100.00;100776.84;5032117;28;20795;-87
2022/06/22 02:33:56;;;;;;;4.90;2.63;;;;;;;10.50;100.00;100768.69;5019807;28;20948;-88
2022/06/22 02:36:32;;;;;;;5.90;2.83;;;;;;;10.48;100.00;100754.53;5036125;28;20421;-87
2022/06/22 02:39:09;;;;;;;6.72;2.88;;;;;;;10.56;100.00;100756.69;5022411;28;20796;-88
2022/06/22 02:44:33;;;;;;;7.28;3.10;;;;;;;10.52;100.00;100744.72;5027710;28;20929;-88
2022/06/22 02:47:21;;;;;;;6.40;3.20;;;;;;;10.49;100.00;100737.94;5024369;28;20420;-87
2022/06/22 02:49:59;;;;;;;5.85;2.83;;;;;;;10.49;100.00;100735.22;5025690;28;20805;-88
2022/06/22 02:52:34;;;;;;;6.72;3.00;;;;;;;10.40;100.00;100731.44;5034760;28;21056;-88
2022/06/22 02:55:12;;;;;;;5.65;2.80;;;;;;;10.30;100.00;100726.84;5029029;28;20423;-88
2022/06/22 02:57:47;;;;;;;6.57;3.28;;;;;;;10.34;100.00;100735.22;5028682;28;20434;-88
2022/06/22 03:00:18;;;;;;;5.95;3.30;;;;;;;10.41;100.00;100749.38;5027798;28;20431;-88
2022/06/22 03:02:50;;;;;;;5.72;3.17;;;;;;;10.33;100.00;100742.59;5033606;28;20420;-88
2022/06/22 03:05:24;;;;;;;5.65;2.95;;;;;;;10.24;100.00;100735.28;5024614;28;20431;-88
2022/06/22 03:08:00;;;;;;;5.47;3.08;;;;;;;10.32;100.00;100749.13;5027936;28;20436;-88
2022/06/22 03:10:32;;;;;;;5.85;3.00;;;;;;;10.25;100.00;100737.72;5027059;28;22122;-88
2022/06/22 03:13:05;;;;;;;5.70;3.10;;;;;;;10.24;100.00;100736.09;5026080;28;20423;-87
2022/06/22 03:15:37;;;;;;;4.65;2.78;;;;;;;10.33;100.00;100734.44;5025253;28;20730;-88
2022/06/22 03:18:16;;;;;;;6.63;3.20;;;;;;;10.35;100.00;100734.97;5028492;28;20428;-89
2022/06/22 03:20:52;;;;;;;6.38;3.30;;;;;;;10.38;100.00;100728.19;5027425;28;20434;-88
2022/06/22 03:23:30;;;;;;;6.90;3.38;;;;;;;10.37;100.00;100731.97;5031817;28;20436;-88
2022/06/22 03:26:11;;;;;;;6.10;3.20;;;;;;;10.43;100.00;100725.44;5028368;28;20904;-88
2022/06/22 03:28:50;;;;;;;7.00;3.55;;;;;;;10.46;100.00;100724.88;5019335;28;20429;-88
2022/06/22 03:31:23;;;;;;;5.35;3.15;;;;;;;10.45;100.00;100725.16;5027187;28;20461;-87
2022/06/22 03:34:03;;;;;;;8.60;3.40;;;;;;;10.44;100.00;100721.66;5031703;28;20425;-87
2022/06/22 03:36:41;;;;;;;7.25;3.50;;;;;;;10.47;100.00;100703.94;5021983;28;20431;-89
2022/06/22 03:39:18;;;;;;;7.07;3.45;;;;;;;10.52;100.00;100718.34;5022354;28;20432;-88
2022/06/22 03:41:57;;;;;;;7.55;4.07;;;;;;;10.32;100.00;100696.63;5028500;28;20439;-88
2022/06/22 03:44:34;;;;;;;6.28;3.67;;;;;;;10.46;100.00;100726.81;5024958;28;20432;-87
2022/06/22 03:47:13;;;;;;;7.00;3.50;;;;;;;10.54;100.00;100715.34;5025668;28;20653;-88
2022/06/22 03:49:52;;;;;;;7.75;3.78;;;;;;;10.53;100.00;100730.03;5021960;28;20448;-88
2022/06/22 03:52:32;;;;;;;7.85;3.97;;;;;;;10.43;100.00;100716.47;5029591;28;20442;-89
2022/06/22 03:55:08;;;;;;;7.38;3.85;;;;;;;10.57;100.00;100731.09;5025394;28;20769;-88
2022/06/22 03:57:44;;;;;;;7.43;3.80;;;;;;;10.67;100.00;100730.25;5027403;28;20453;-88
2022/06/22 04:00:18;;;;;;;10.25;4.15;;;;;;;10.65;100.00;100733.25;5016651;28;20463;-88
2022/06/22 04:02:53;;;;;;;8.00;4.07;;;;;;;10.65;100.00;100733.25;5028674;28;20434;-87
2022/06/22 04:05:34;;;;;;;8.73;4.18;;;;;;;10.70;100.00;100725.06;5030746;28;20431;-88
2022/06/22 04:08:16;;;;;;;7.32;4.22;;;;;;;10.82;100.00;100735.63;5022470;28;20923;-89
2022/06/22 04:10:57;;;;;;;7.53;4.07;;;;;;;10.70;100.00;100727.78;5021616;28;20442;-87
2022/06/22 04:13:36;;;;;;;8.93;4.00;;;;;;;10.87;100.00;100741.03;5022843;28;20434;-89
2022/06/22 04:16:14;;;;;;;7.68;4.03;;;;;;;10.90;100.00;100750.56;5026160;28;20434;-87
2022/06/22 04:18:47;;;;;;;10.63;4.20;;;;;;;11.00;100.00;100747.78;5017733;28;20920;-88
2022/06/22 04:21:23;;;;;;;9.23;4.57;;;;;;;11.02;100.00;100750.22;5034131;28;20435;-88
2022/06/22 04:24:00;;;;;;;8.23;4.10;;;;;;;11.05;100.00;100733.31;5025311;28;20927;-87
2022/06/22 04:26:39;;;;;;;9.03;4.37;;;;;;;11.17;100.00;100727.53;5030624;28;20440;-89
2022/06/22 04:29:16;;;;;;;7.75;4.13;;;;;;;11.20;100.00;100735.94;5025905;28;20430;-87
2022/06/22 04:31:56;;;;;;;8.07;4.00;;;;;;;11.19;100.00;100742.50;5025176;28;20444;-87
2022/06/22 04:34:37;;;;;;;7.75;4.20;;;;;;;11.25;100.00;100756.88;5028644;28;20437;-87
2022/06/22 04:37:22;;;;;;;8.50;4.28;;;;;;;11.21;100.00;100742.19;5023082;28;20437;-88
2022/06/22 04:39:58;;;;;;;6.90;4.00;;;;;;;11.43;100.00;100754.59;5025461;28;20435;-87
2022/06/22 04:42:31;;;;;;;9.07;4.00;;;;;;;11.50;100.00;100746.91;5021397;28;20917;-85
2022/06/22 04:45:06;;;;;;;6.70;3.72;;;;;;;11.60;100.00;100752.28;5025408;28;20431;-87
2022/06/22 04:47:39;;;;;;;9.05;4.22;;;;;;;11.66;100.00;100755.78;5019313;28;20425;-87
2022/06/22 04:50:11;;;;;;;8.80;4.10;;;;;;;11.71;100.00;100759.28;5020814;28;20436;-86
2022/06/22 04:52:50;;;;;;;8.07;4.40;;;;;;;11.74;100.00;100752.44;5018362;28;20438;-87
2022/06/22 04:55:21;;;;;;;8.95;4.30;;;;;;;11.85;100.00;100742.28;5024035;28;20434;-89
2022/06/22 04:57:58;;;;;;;9.30;4.40;;;;;;;11.96;100.00;100754.72;5021979;28;20423;-86
2022/06/22 05:00:29;;;;;;;8.68;4.20;;;;;;;11.97;100.00;100755.53;5025945;28;20477;-87
2022/06/22 05:03:02;;;;;;;8.77;3.90;;;;;;;12.15;100.00;100773.94;5026871;28;20805;-88
2022/06/22 05:05:34;;;;;;;9.77;4.22;;;;;;;11.86;100.00;100728.34;5029308;28;20446;-87
2022/06/22 05:08:16;;;;;;;8.10;3.80;;;;;;;13.20;100.00;100786.03;5031299;28;20432;-87
2022/06/22 05:10:54;;;;;;;9.30;3.70;;;;;;;14.54;100.00;100787.41;5032028;28;20525;-87
2022/06/22 05:13:30;;;;;;;7.57;3.42;;;;;;;16.76;100.00;100776.63;5031018;28;20769;-89
2022/06/22 05:16:07;;;;;;;5.93;2.97;;;;;;;17.56;100.00;100775.59;5027650;28;21128;-88
2022/06/22 05:18:38;;;;;;;6.22;2.95;;;;;;;17.96;100.00;100776.22;5033213;28;20912;-87
2022/06/22 05:21:17;;;;;;;5.40;2.97;;;;;;;18.27;100.00;100775.16;5037943;28;20477;-86
2022/06/22 05:23:55;;;;;;;5.03;2.70;;;;;;;18.15;100.00;100767.56;5028095;28;20419;-87
2022/06/22 05:26:27;;;;;;;4.78;2.42;;;;;;;20.18;100.00;100768.53;5028866;28;20521;-88
2022/06/22 05:29:02;;;;;;;4.80;2.58;;;;;;;18.60;100.00;100771.78;5029268;28;20426;-88
2022/06/22 05:31:39;;;;;;;7.13;2.90;;;;;;;19.90;100.00;100762.03;5044446;28;20892;-88
2022/06/22 05:34:19;;;;;;;5.73;2.53;;;;;;;19.50;100.00;100758.66;5032826;28;20423;-88
2022/06/22 05:36:59;;;;;;;7.53;2.35;;;;;;;19.65;100.00;100765.53;5032728;28;20419;-89
2022/06/22 05:39:35;;;;;;;5.05;2.40;;;;;;;19.82;100.00;100780.34;5033484;28;20440;-87
2022/06/22 05:42:11;;;;;;;5.05;2.47;;;;;;;20.29;100.00;100765.34;5031071;28;20776;-88
2022/06/22 05:44:40;;;;;;;4.57;2.13;;;;;;;18.35;100.00;100779.00;5042659;28;20453;-89
2022/06/22 05:47:17;;;;;;;6.53;2.58;;;;;;;18.86;100.00;100776.31;5030172;28;20907;-88
2022/06/22 05:49:56;;;;;;;6.22;2.42;;;;;;;17.73;100.00;100770.09;5027553;28;20439;-85
2022/06/22 05:52:36;;;;;;;5.38;2.50;;;;;;;17.48;100.00;100769.78;5009470;28;20430;-85
2022/06/22 05:55:18;;;;;;;7.30;2.33;;;;;;;16.60;100.00;100766.09;5017558;28;20442;-86
2022/06/22 05:57:49;;;;;;;7.03;2.78;;;;;;;15.83;100.00;100767.34;5005570;28;20419;-84
2022/06/22 06:00:27;;;;;;;7.07;3.10;;;;;;;15.26;100.00;100761.25;5008720;28;20435;-86
2022/06/22 06:03:06;;;;;;;7.13;3.33;;;;;;;14.56;100.00;100765.19;5007835;28;20419;-85
2022/06/22 06:05:41;;;;;;;6.93;3.40;;;;;;;14.84;100.00;100773.41;5006658;28;20992;-86
2022/06/22 06:08:22;;;;;;;9.30;3.55;;;;;;;15.13;100.00;100770.31;5012062;28;20435;-85
2022/06/22 06:10:58;;;;;;;7.38;3.70;;;;;;;14.97;100.00;100758.88;5008490;28;20419;-88
2022/06/22 06:13:35;;;;;;;6.97;3.50;;;;;;;15.17;100.00;100752.13;5006807;28;20426;-84
2022/06/22 06:16:13;;;;;;;7.28;3.50;;;;;;;15.28;100.00;100741.75;5011559;28;20430;-84
2022/06/22 06:18:48;;;;;;;7.10;3.40;;;;;;;15.11;100.00;100751.44;5006896;28;20427;-86
2022/06/22 06:21:24;;;;;;;9.15;3.78;;;;;;;15.50;100.00;100742.88;5008720;28;20430;-86
2022/06/22 06:23:56;;;;;;;7.30;3.60;;;;;;;15.40;100.00;100738.47;5009597;28;20520;-87
2022/06/22 06:29:38;;;;;;;9.60;3.88;;;;;;;15.13;100.00;100729.19;5005991;28;20431;-83
2022/06/22 06:32:24;;;;;;;7.03;3.72;;;;;;;14.88;100.00;100733.31;5009707;28;20430;-85
2022/06/22 06:35:02;;;;;;;6.35;3.40;;;;;;;15.21;100.00;100725.72;5011272;28;20431;-84
2022/06/22 06:37:45;;;;;;;8.88;3.60;;;;;;;15.21;100.00;100731.19;5006416;28;20439;-84
2022/06/22 06:40:19;;;;;;;8.10;3.58;;;;;;;15.27;100.00;100726.41;5011669;28;20426;-84
2022/06/22 06:43:00;;;;;;;7.60;3.28;;;;;;;15.06;100.00;100734.28;5011065;28;21119;-84
2022/06/22 06:45:35;;;;;;;9.40;3.55;;;;;;;15.03;100.00;100732.97;5010613;28;20935;-84
2022/06/22 06:48:08;;;;;;;7.95;3.40;;;;;;;15.40;100.00;100730.22;5010120;28;20431;-86
2022/06/22 06:50:47;;;;;;;8.82;4.10;;;;;;;15.58;100.00;100731.97;5010483;28;20450;-86
2022/06/22 06:53:24;;;;;;;8.15;3.60;;;;;;;15.78;100.00;100733.41;5005595;28;20423;-85
2022/06/22 06:56:02;;;;;;;8.57;3.60;;;;;;;15.92;100.00;100741.56;5010745;28;20425;-84
2022/06/22 06:58:43;;;;;;;8.15;3.03;;;;;;;16.23;100.00;100738.00;5005212;28;20776;-86
2022/06/22 07:01:18;;;;;;;4.95;2.70;;;;;;;15.87;100.00;100741.69;5005360;28;20450;-85
2022/06/22 07:03:58;;;;;;;7.63;3.20;;;;;;;15.89;100.00;100739.44;5008667;28;20435;-87
2022/06/22 07:06:32;;;;;;;7.82;3.13;;;;;;;16.05;100.00;100730.81;5011742;28;20458;-83
2022/06/22 07:09:17;;;;;;;5.82;3.17;;;;;;;15.82;100.00;100733.59;5010048;28;20898;-85
2022/06/22 07:11:54;;;;;;;6.70;3.00;;;;;;;16.29;100.00;100749.66;5008789;28;20415;-84
2022/06/22 07:14:33;;;;;;;6.85;2.88;;;;;;;16.21;100.00;100747.66;5008145;28;21506;-85
2022/06/22 07:17:06;;;;;;;6.57;3.20;;;;;;;16.55;100.00;100752.47;5009063;28;20423;-84
2022/06/22 07:19:39;;;;;;;7.33;3.00;;;;;;;16.58;100.00;100764.78;5002428;28;20442;-85
2022/06/22 07:22:19;;;;;;;6.18;2.88;;;;;;;16.46;100.00;100755.22;5004840;28;20442;-84
2022/06/22 07:24:59;;;;;;;7.03;2.88;;;;;;;16.65;100.00;100756.88;5007442;28;20427;-85
2022/06/22 07:27:37;;;;;;;6.28;2.97;;;;;;;17.06;100.00;100763.94;5008778;28;20438;-84
2022/06/22 07:30:17;;;;;;;6.07;3.00;;;;;;;16.69;100.00;100770.78;5018923;28;20835;-83
2022/06/22 07:32:59;;;;;;;6.07;3.08;;;;;;;16.96;100.00;100770.56;5003752;28;21008;-85
2022/06/22 07:35:35;;;;;;;6.75;3.20;;;;;;;16.80;100.00;100783.91;4997699;28;20418;-84
2022/06/22 07:38:17;;;;;;;6.22;2.90;;;;;;;16.86;100.00;100770.03;4996153;28;20419;-84
2022/06/22 07:43:43;;;;;;;5.85;2.78;;;;;;;16.91;100.00;100764.41;4994950;28;20915;-86
2022/06/22 07:46:24;;;;;;;7.07;2.70;;;;;;;17.06;100.00;100771.38;4993890;28;20430;-85
2022/06/22 07:48:59;;;;;;;7.18;3.00;;;;;;;17.36;100.00;100766.06;4998568;28;20414;-85
2022/06/22 07:51:36;;;;;;;7.13;3.55;;;;;;;17.55;100.00;100760.22;4994823;28;20450;-87
2022/06/22 07:54:14;;;;;;;6.88;3.10;;;;;;;17.68;100.00;100767.50;4993068;28;20431;-85
2022/06/22 07:56:55;;;;;;;7.22;2.95;;;;;;;17.48;100.00;100764.28;4998680;28;20454;-85
2022/06/22 07:59:28;;;;;;;7.45;3.40;;;;;;;17.22;100.00;100766.22;5007075;28;20430;-86
2022/06/22 08:02:12;;;;;;;9.05;3.50;;;;;;;17.30;100.00;100766.22;5007944;28;20427;-86
2022/06/22 08:04:50;;;;;;;9.27;3.65;;;;;;;17.47;100.00;100775.63;5011171;28;20434;-83
2022/06/22 08:07:24;;;;;;;7.85;3.35;;;;;;;17.38;100.00;100756.34;5009482;28;21393;-85
2022/06/22 08:10:03;;;;;;;6.70;3.10;;;;;;;17.56;100.00;100764.59;5007537;28;21312;-84
2022/06/22 08:12:41;;;;;;;6.95;3.60;;;;;;;17.65;100.00;100762.66;5009600;28;20950;-85
2022/06/22 08:15:17;;;;;;;8.00;3.63;;;;;;;17.68;100.00;100760.03;5012333;28;21741;-87
2022/06/22 08:17:49;;;;;;;6.03;2.70;;;;;;;17.14;100.00;100756.84;5012055;28;20430;-83
2022/06/22 08:20:28;;;;;;;6.60;3.00;;;;;;;17.52;100.00;100758.94;5007272;28;21444;-85
2022/06/22 08:23:05;;;;;;;6.35;3.00;;;;;;;17.60;100.00;100762.81;5003750;28;20824;-86
2022/06/22 08:25:38;;;;;;;8.65;3.10;;;;;;;17.70;100.00;100756.97;5011345;28;20433;-84
2022/06/22 08:28:07;;;;;;;7.03;2.90;;;;;;;17.55;100.00;100744.50;5006919;28;20435;-84
2022/06/22 08:30:41;;;;;;;7.70;3.22;;;;;;;17.55;100.00;100758.28;5012446;28;21115;-87
2022/06/22 08:33:21;;;;;;;6.13;2.70;;;;;;;17.57;100.00;100760.72;5011198;28;20453;-84
2022/06/22 08:35:56;;;;;;;6.47;2.90;;;;;;;17.66;100.00;100764.25;5019233;28;20434;-84
2022/06/22 08:38:35;;;;;;;6.03;3.00;;;;;;;17.81;100.00;100762.94;5009917;28;20438;-84
2022/06/22 08:41:11;;;;;;;5.55;2.53;;;;;;;18.02;100.00;100757.56;5011268;28;20946;-86
2022/06/22 08:43:49;;;;;;;6.25;2.92;;;;;;;18.32;100.00;100765.91;5008089;28;21115;-85
2022/06/22 08:46:39;;;;;;;7.85;3.00;;;;;;;18.38;100.00;100767.34;5012819;28;20415;-86
2022/06/22 08:49:27;;;;;;;6.93;2.83;;;;;;;18.48;100.00;100766.16;5010228;28;20427;-85
2022/06/22 08:52:12;;;;;;;4.75;2.50;;;;;;;18.24;100.00;100758.47;5012838;28;20434;-86
2022/06/22 08:54:53;;;;;;;5.95;2.70;;;;;;;18.42;100.00;100759.22;5013794;28;21889;-85
2022/06/22 08:57:32;;;;;;;6.70;2.80;;;;;;;18.48;100.00;100753.19;5014561;28;20442;-84
2022/06/22 09:00:15;;;;;;;6.17;3.00;;;;;;;18.54;100.00;100759.31;5008095;28;20434;-85
2022/06/22 09:03:19;;;;;;;5.53;2.42;;;;;;;18.46;100.00;100763.75;5010335;28;20446;-85
2022/06/22 09:06:09;;;;;;;6.22;2.83;;;;;;;18.30;100.00;100759.91;5011843;28;20427;-84
2022/06/22 09:08:57;;;;;;;5.32;2.40;;;;;;;18.16;100.00;100779.38;5009570;28;20429;-84
2022/06/22 09:11:30;;;;;;;5.88;2.35;;;;;;;18.21;100.00;100768.19;5011468;28;20915;-83
2022/06/22 09:14:30;;;;;;;5.80;2.60;;;;;;;18.37;100.00;100774.00;5012035;28;21238;-84
2022/06/22 09:17:23;;;;;;;6.38;2.47;;;;;;;18.65;100.00;100766.06;5016000;28;20435;-84
2022/06/22 09:20:09;;;;;;;6.47;2.58;;;;;;;18.99;100.00;100771.75;5009908;28;20431;-85
2022/06/22 09:22:54;;;;;;;6.70;2.60;;;;;;;18.89;100.00;100780.41;5011642;28;20441;-85
2022/06/22 09:25:31;;;;;;;5.15;2.38;;;;;;;19.12;100.00;100778.94;5010265;28;20454;-85
2022/06/22 09:28:11;;;;;;;4.55;2.40;;;;;;;19.12;100.00;100792.72;5016612;28;20434;-86
2022/06/22 09:31:00;;;;;;;5.07;2.30;;;;;;;18.99;100.00;100783.56;5011117;28;20427;-86
2022/06/22 09:33:54;;;;;;;4.50;2.13;;;;;;;19.30;100.00;100781.56;5009133;28;20462;-85
2022/06/22 09:36:41;;;;;;;4.20;2.13;;;;;;;19.11;100.00;100788.38;5013345;28;20438;-85
2022/06/22 09:39:41;;;;;;;4.93;2.08;;;;;;;19.45;100.00;100767.16;5008259;28;20438;-85
2022/06/22 09:42:33;;;;;;;4.70;2.30;;;;;;;19.88;100.00;100778.97;5001752;28;20438;-86
2022/06/22 09:45:29;;;;;;;5.20;2.67;;;;;;;20.01;100.00;100772.31;5015090;28;20427;-87
2022/06/22 09:48:26;;;;;;;5.65;2.47;;;;;;;20.29;100.00;100779.16;5013478;28;20445;-86
2022/06/22 09:51:12;;;;;;;5.65;2.22;;;;;;;19.99;91.20;100765.53;5010400;28;20439;-86
2022/06/22 09:54:07;;;;;;;6.22;2.50;;;;;;;19.74;90.99;100789.47;5005177;28;20423;-86
2022/06/22 09:56:58;;;;;;;5.45;2.30;;;;;;;19.61;97.29;100791.38;5001301;28;20427;-85
2022/06/22 10:00:06;;;;;;;6.73;2.43;;;;;;;19.62;96.79;100790.22;4999383;28;20453;-85
2022/06/22 10:03:04;;;;;;;5.07;2.35;;;;;;;20.02;96.00;100781.41;5001179;28;20435;-86
2022/06/22 10:05:55;;;;;;;4.75;2.50;;;;;;;20.22;100.00;100785.25;5001741;28;20430;-84
2022/06/22 10:08:39;;;;;;;6.15;2.80;;;;;;;19.64;100.00;100793.47;5000005;28;20427;-86
2022/06/22 10:11:25;;;;;;;5.60;2.72;;;;;;;19.45;100.00;100788.44;5000412;28;20408;-85
2022/06/22 10:14:15;;;;;;;5.40;2.78;;;;;;;19.42;100.00;100794.63;5002944;28;20407;-85
2022/06/22 10:16:55;;;;;;;5.93;2.70;;;;;;;19.99;100.00;100779.34;4998410;28;20838;-85
2022/06/22 10:19:55;;;;;;;6.05;2.70;;;;;;;19.97;100.00;100787.97;4997087;28;20462;-85
2022/06/22 10:22:46;;;;;;;6.25;2.92;;;;;;;19.54;100.00;100784.44;4998221;28;20508;-86
2022/06/22 10:25:41;;;;;;;3.97;2.10;;;;;;;19.84;93.31;100786.31;5002477;28;20407;-86
2022/06/22 10:28:37;;;;;;;6.57;2.70;;;;;;;20.23;100.00;100784.09;4994451;28;20789;-85
2022/06/22 10:31:24;;;;;;;7.05;2.90;;;;;;;20.26;100.00;100777.91;4996576;28;20430;-88
2022/06/22 10:34:28;;;;;;;6.57;2.80;;;;;;;20.19;100.00;100783.97;4995034;28;20607;-86
2022/06/22 10:37:36;;;;;;;7.15;3.17;;;;;;;19.87;100.00;100756.06;4995195;28;20426;-84
2022/06/22 10:46:22;;;;;;;4.28;1.85;;;;;;;20.57;77.24;100776.53;5005602;28;20438;-85
2022/06/22 10:49:31;;;;;;;4.60;2.22;;;;;;;20.72;83.01;100773.09;5005024;28;20418;-85
2022/06/22 10:52:33;;;;;;;6.88;2.90;;;;;;;20.82;82.45;100766.28;4997675;28;21029;-87
2022/06/22 10:55:35;;;;;;;6.68;3.10;;;;;;;21.10;86.21;100764.72;4993947;28;21001;-85
2022/06/22 10:58:28;;;;;;;5.95;3.10;;;;;;;20.60;81.51;100763.97;4982772;28;20419;-83
2022/06/22 11:01:19;;;;;;;5.93;3.22;;;;;;;20.63;80.10;100764.09;4994934;28;20432;-84
2022/06/22 11:04:25;;;;;;;4.75;2.30;;;;;;;21.37;82.55;100758.41;5001240;28;20438;-84
2022/06/22 11:07:21;;;;;;;6.82;2.60;;;;;;;20.99;66.55;100754.16;4996371;28;20422;-83
2022/06/22 11:10:09;;;;;;;4.18;2.00;;;;;;;20.65;69.54;100744.38;5001101;28;20435;-82
2022/06/22 11:13:07;;;;;;;4.70;2.20;;;;;;;20.86;67.76;100744.28;4998045;28;20434;-85
2022/06/22 11:16:15;;;;;;;4.17;2.03;;;;;;;21.48;67.56;100744.88;4999523;28;20418;-83
2022/06/22 11:19:10;;;;;;;4.07;2.10;;;;;;;21.55;64.69;100758.94;4998961;28;21508;-84
2022/06/22 11:22:02;;;;;;;4.55;2.30;;;;;;;21.36;62.35;100747.69;4993196;28;20446;-84
2022/06/22 11:25:02;;;;;;;4.63;2.05;;;;;;;20.74;54.18;100745.09;4992542;28;20935;-84
2022/06/22 11:30:53;;;;;;;5.00;2.20;;;;;;;21.06;59.91;100743.31;4998840;28;20430;-83
2022/06/22 11:33:51;;;;;;;5.85;2.58;;;;;;;21.02;60.70;100744.38;4998793;28;21366;-84
2022/06/22 11:36:32;;;;;;;4.63;2.37;;;;;;;21.14;65.50;100746.28;4997792;28;20429;-84
2022/06/22 11:39:20;;;;;;;4.83;2.50;;;;;;;20.94;62.53;100746.09;5000289;28;20426;-83
2022/06/22 11:42:13;;;;;;;4.93;2.15;;;;;;;21.15;64.25;100739.59;5003396;28;20407;-83
2022/06/22 11:48:12;;;;;;;3.83;2.10;;;;;;;21.67;62.27;100735.94;4996971;28;20915;-83
2022/06/22 11:50:54;;;;;;;5.00;2.50;;;;;;;21.77;61.24;100742.13;4993803;28;20426;-84
2022/06/22 11:53:44;;;;;;;4.45;2.30;;;;;;;21.71;59.81;100745.16;4999258;28;20427;-82
2022/06/22 11:56:25;;;;;;;2.92;2.08;;;;;;;21.84;64.81;100737.56;5003812;28;20403;-82
2022/06/22 11:59:11;;;;;;;6.33;2.47;;;;;;;22.27;71.43;100729.53;5003069;28;20427;-83
2022/06/22 12:02:16;;;;;;;6.75;2.35;;;;;;;22.27;61.92;100735.09;4997948;28;20426;-84
2022/06/22 12:05:08;;;;;;;3.97;2.10;;;;;;;22.22;56.38;100729.81;4993620;28;20431;-82
2022/06/22 12:08:09;;;;;;;4.60;2.17;;;;;;;21.78;56.61;100727.94;4996658;28;20426;-84
2022/06/22 12:10:50;;;;;;;4.03;2.03;;;;;;;21.72;56.17;100718.25;4996198;28;20427;-84
2022/06/22 12:13:35;;;;;;;3.78;2.10;;;;;;;21.87;60.55;100720.22;5001345;28;20771;-82
2022/06/22 12:16:17;;;;;;;4.55;2.58;;;;;;;22.00;62.61;100712.66;4999197;28;21104;-82
2022/06/22 12:19:02;;;;;;;4.43;2.30;;;;;;;21.86;63.18;100717.81;4994298;28;20749;-84
2022/06/22 12:21:56;;;;;;;4.35;2.35;;;;;;;22.07;68.08;100717.59;4990421;28;20438;-84
2022/06/22 12:24:44;;;;;;;4.35;2.30;;;;;;;21.89;57.26;100708.81;4997699;28;20415;-84
2022/06/22 12:27:25;;;;;;;5.00;2.22;;;;;;;21.91;59.71;100707.28;4999059;28;20431;-81
2022/06/22 12:30:05;;;;;;;4.50;2.20;;;;;;;22.49;66.90;100710.69;4998142;28;20433;-84
2022/06/22 12:32:43;;;;;;;4.10;2.40;;;;;;;22.63;59.89;100693.56;4998640;28;21246;-79
2022/06/22 12:35:27;;;;;;;3.92;2.05;;;;;;;22.57;57.74;100693.84;5001699;28;20432;-85
2022/06/22 12:38:04;;;;;;;4.57;2.10;;;;;;;22.67;61.14;100686.13;4997789;28;20430;-85
2022/06/22 12:40:46;;;;;;;3.47;1.90;;;;;;;22.84;60.93;100699.59;5002396;28;20434;-83
2022/06/22 12:43:52;;;;;;;3.75;1.90;;;;;;;22.94;57.75;100687.13;4999241;28;20438;-83
2022/06/22 12:46:44;;;;;;;4.10;2.03;;;;;;;22.78;54.11;100692.72;5000290;28;20473;-82
2022/06/22 12:49:33;;;;;;;5.72;2.20;;;;;;;22.70;61.01;100689.00;5003454;28;20430;-84